Pagrindinis puslapis
METAR-TAF:

METAR-TAF

Oro uostai :

Aidinas, Turkija

platuma: 37-48-54N, ilguma: 27-53-21E, Aukštis: 31 m

Dabartinis oras

Ataskaita buvo paskelbta 12 valandos ir 17 minutes, ne 14:50 UTC
Vėjas 8 kt iš Vakarų/Pietvakarių
Temperatūra 13°C
Drėgmė 82%
Slėgis 1009 hPa
Matomumas: 8000 m
Mažai debesys ne aukštis 1500 ft, Liūtiniai kamuoliniai debesys.
Su prošvaistėmis ne aukštis 3000 ft
Su prošvaistėmis ne aukštis 9000 ft

METAR: LTBD 301450Z 25008KT 8000 FEW015CB BKN030 BKN090 13/10 Q1009 RETSRA

Laikas: 06:07 (03:07 UTC)

Prognozė

Ataskaita buvo paskelbta 1 valandą ir 27 minutes, ne 01:40 UTC
Prognozė galioja nuo 01 metu 03 UTC su 01 metu 12 UTC
Vėjas 2 kt nuo kintamojo kryptimis
Matomumas 10 km arba daugiau
Išsisklaidę debesys ne aukštis 3500 ft
Laikinai
nuo 01 metu 04 UTC su 01 metu 07 UTC
Matomumas: 3000 m
rūkana
Laikinai
nuo 01 metu 09 UTC su 01 metu 12 UTC
Vėjas 12 kt iš Vakarų/Pietvakarių

TAF: LTBD 010140Z 0103/0112 VRB02KT 9999 SCT035 TEMPO 0104/0107 3000 BR TEMPO 0109/0112 24012KT

Orai ataskaitas ir orų prognozės (METAR, TAF).

turimą stotys yra geltonos ir raudonos taškus žemėlapyje.

Perkelti pele per norėdami pamatyti stoties vardą.

Tada spustelėkite, norėdami matyti oro stebėjimo ir prognozės.

Norėdami pakeisti žemėlapį: spustelėkite ant žalios mygtukų su juodo kryžiaus žemyn,; žalią mygtuką su brūkšneliu, jei norite nutolinti; arba žalių rodyklių gretimoms žemėlapius.


METAR-TAF: